Time;durP1;ratioP1;P1;durP2;ratioP2;P2;SDS_P1;SDS_P2;PMS_P1;PMS_P2;Temp;Humidity;BMP_temperature;BMP_pressure;BME280_temperature;BME280_humidity;BME280_pressure;Samples;Min_cycle;Max_cycle;Signal;HPM_P1;HPM_P2
2021/01/08 00:01:15;;;;;;;1.37;1.22;;;;;;;2.01;76.25;98508.42;1784935;80;21149;-43
2021/01/08 00:03:43;;;;;;;1.25;1.10;;;;;;;2.00;76.40;98517.53;1784110;79;21150;-43
2021/01/08 00:06:12;;;;;;;2.75;1.32;;;;;;;1.97;76.00;98516.07;1784258;79;23507;-42
2021/01/08 00:08:42;;;;;;;1.40;1.30;;;;;;;2.01;76.31;98522.33;1783759;80;21463;-42
2021/01/08 00:11:10;;;;;;;1.75;1.30;;;;;;;2.08;76.20;98519.95;1784151;79;21134;-43
2021/01/08 00:15:42;;;;;;;1.40;1.30;;;;;;;2.04;76.28;98530.48;1774709;79;22725;-41
2021/01/08 00:18:11;;;;;;;1.30;1.20;;;;;;;1.99;76.42;98541.91;1743358;82;21016;-42
2021/01/08 00:20:44;;;;;;;1.37;1.27;;;;;;;2.05;76.41;98532.05;1747762;82;21372;-41
2021/01/08 00:23:14;;;;;;;1.37;1.27;;;;;;;2.06;75.96;98543.53;1729351;82;21061;-42
2021/01/08 00:25:44;;;;;;;1.40;1.30;;;;;;;2.01;76.04;98540.49;1719209;82;21007;-41
2021/01/08 00:28:12;;;;;;;1.67;1.17;;;;;;;2.00;76.08;98540.80;1646223;83;21040;-42
2021/01/08 00:30:41;;;;;;;1.75;1.57;;;;;;;2.04;75.68;98538.50;1718743;83;20980;-41
2021/01/08 00:33:12;;;;;;;0.90;0.85;;;;;;;2.04;75.73;98539.05;1726177;82;21447;-42
2021/01/08 00:35:41;;;;;;;1.10;1.00;;;;;;;2.02;75.71;98539.95;1729044;82;21032;-42
2021/01/08 00:38:10;;;;;;;1.15;1.05;;;;;;;2.02;75.74;98542.06;1718872;82;21004;-42
2021/01/08 00:40:39;;;;;;;1.45;1.35;;;;;;;2.08;75.70;98552.03;1718680;82;21186;-42
2021/01/08 00:43:10;;;;;;;1.47;1.37;;;;;;;2.07;75.73;98545.11;1719664;81;21166;-42
2021/01/08 00:45:39;;;;;;;0.85;0.85;;;;;;;1.97;76.09;98536.91;1718929;83;21207;-42
2021/01/08 00:48:09;;;;;;;1.50;1.30;;;;;;;2.04;76.23;98546.52;1743785;82;21194;-41
2021/01/08 00:50:37;;;;;;;1.75;1.42;;;;;;;2.07;76.19;98539.76;1747635;82;21618;-42
2021/01/08 00:53:05;;;;;;;1.30;1.20;;;;;;;2.08;76.17;98546.10;1739746;82;21165;-42
2021/01/08 00:55:33;;;;;;;1.40;1.30;;;;;;;2.06;76.30;98553.67;1718999;82;21178;-42
2021/01/08 00:58:03;;;;;;;;;;;;;;;2.02;76.21;98551.42;1721350;82;21222;-42
2021/01/08 01:00:33;;;;;;;1.40;1.30;;;;;;;2.05;76.27;98547.30;1718578;83;20286;-42
2021/01/08 01:03:02;;;;;;;1.92;1.60;;;;;;;1.96;76.46;98558.05;1725319;82;21115;-42
2021/01/08 01:05:30;;;;;;;1.60;1.40;;;;;;;1.98;76.49;98554.52;1748513;81;21134;-41
2021/01/08 01:07:59;;;;;;;1.40;1.30;;;;;;;2.00;76.32;98565.66;1743083;82;21150;-41
2021/01/08 01:10:27;;;;;;;1.72;1.62;;;;;;;2.08;76.00;98564.81;1720525;82;21399;-41
2021/01/08 01:12:56;;;;;;;1.55;1.37;;;;;;;2.08;76.08;98573.41;1742752;82;21023;-42
2021/01/08 01:15:26;;;;;;;1.77;1.57;;;;;;;2.03;75.71;98574.35;1719266;82;21008;-42
2021/01/08 01:17:55;;;;;;;1.75;1.65;;;;;;;2.04;75.66;98574.59;1718867;82;21162;-41
2021/01/08 01:20:23;;;;;;;2.12;1.50;;;;;;;2.12;75.53;98581.80;1749348;82;21135;-42
2021/01/08 01:22:53;;;;;;;;;;;;;;;2.13;75.53;98581.25;1745403;82;21354;-42
2021/01/08 01:25:22;;;;;;;2.50;1.75;;;;;;;2.11;75.53;98594.94;1719350;83;20638;-42
2021/01/08 01:27:50;;;;;;;1.65;1.55;;;;;;;2.09;75.67;98594.45;1746756;82;21168;-42
2021/01/08 01:30:20;;;;;;;2.08;1.77;;;;;;;2.19;75.54;98588.75;1748595;82;21079;-42
2021/01/08 01:32:50;;;;;;;2.60;1.90;;;;;;;2.14;75.55;98609.53;1733955;82;21146;-42
2021/01/08 01:35:19;;;;;;;1.77;1.62;;;;;;;2.10;75.89;98605.94;1748702;82;21206;-41
2021/01/08 01:37:47;;;;;;;1.98;1.75;;;;;;;2.09;75.65;98602.48;1721718;82;21190;-42
2021/01/08 01:40:15;;;;;;;3.33;2.00;;;;;;;2.14;75.46;98602.85;1692488;83;21158;-42
2021/01/08 01:42:44;;;;;;;2.05;1.80;;;;;;;2.11;75.40;98604.30;1719462;82;21039;-40
2021/01/08 01:45:13;;;;;;;1.77;1.60;;;;;;;2.08;74.99;98596.90;1719046;83;21126;-41
2021/01/08 01:47:41;;;;;;;2.40;1.62;;;;;;;2.04;74.56;98593.86;1719361;82;22133;-42
2021/01/08 01:50:10;;;;;;;2.17;1.70;;;;;;;2.12;74.71;98607.20;1718820;83;21131;-41
2021/01/08 01:52:38;;;;;;;2.37;1.85;;;;;;;2.10;74.97;98597.38;1738829;82;21056;-41
2021/01/08 01:55:09;;;;;;;1.85;1.50;;;;;;;2.08;75.12;98599.57;1719009;83;21158;-40
2021/01/08 01:57:37;;;;;;;1.77;1.60;;;;;;;2.10;75.55;98596.58;1731809;82;21109;-42
2021/01/08 02:00:08;;;;;;;2.22;2.02;;;;;;;2.12;75.35;98604.53;1743298;82;21392;-35
2021/01/08 02:02:56;;;;;;;2.37;2.05;;;;;;;2.11;75.79;98595.48;1743889;82;21138;-41
2021/01/08 02:05:24;;;;;;;1.67;1.57;;;;;;;2.09;76.08;98606.49;1719032;82;21055;-40
2021/01/08 02:08:01;;;;;;;1.95;1.75;;;;;;;2.07;76.06;98603.38;1719275;82;21158;-40
2021/01/08 02:10:40;;;;;;;2.20;2.00;;;;;;;2.14;75.91;98608.98;1733230;82;21138;-41
2021/01/08 02:13:12;;;;;;;1.75;1.62;;;;;;;2.08;75.87;98594.80;1719272;82;25245;-38
2021/01/08 02:15:40;;;;;;;2.25;1.70;;;;;;;2.02;76.05;98611.57;1719377;82;21839;-42
2021/01/08 02:18:09;;;;;;;2.20;1.80;;;;;;;2.07;76.05;98617.29;1728938;82;21194;-41
2021/01/08 02:20:37;;;;;;;2.70;1.75;;;;;;;2.09;75.82;98620.41;1748787;82;20981;-41
2021/01/08 02:23:13;;;;;;;2.00;1.80;;;;;;;2.08;76.09;98626.30;1737930;82;21162;-41
2021/01/08 02:25:42;;;;;;;1.90;1.65;;;;;;;2.09;75.89;98621.20;1719130;82;21215;-41
2021/01/08 02:28:25;;;;;;;1.75;1.65;;;;;;;2.11;75.93;98623.01;1718725;83;21461;-42
2021/01/08 02:30:54;;;;;;;1.87;1.67;;;;;;;2.14;76.01;98625.58;1718829;83;21043;-40
2021/01/08 02:33:24;;;;;;;2.03;1.83;;;;;;;2.09;76.26;98625.20;1692448;83;21056;-41
2021/01/08 02:35:53;;;;;;;2.55;1.80;;;;;;;2.10;76.40;98633.47;1719189;82;21158;-41
2021/01/08 02:38:21;;;;;;;2.10;1.90;;;;;;;2.12;75.85;98614.44;1718693;83;23519;-41
2021/01/08 02:40:50;;;;;;;2.20;2.00;;;;;;;2.13;75.83;98631.48;1718980;82;21159;-41
2021/01/08 02:43:22;;;;;;;2.12;1.92;;;;;;;2.11;75.98;98636.37;1734310;82;21036;-41
2021/01/08 02:45:51;;;;;;;1.67;1.57;;;;;;;2.09;75.83;98638.58;1747969;82;21134;-41
2021/01/08 02:48:22;;;;;;;2.95;1.80;;;;;;;2.14;75.69;98638.40;1748683;82;21098;-42
2021/01/08 02:50:51;;;;;;;2.00;1.80;;;;;;;2.12;75.48;98632.61;1748940;82;21271;-40
2021/01/08 02:53:22;;;;;;;2.37;2.00;;;;;;;2.08;75.69;98635.66;1733159;82;21162;-39
2021/01/08 02:55:56;;;;;;;2.20;2.00;;;;;;;2.08;75.51;98638.91;1720319;82;21637;-40
2021/01/08 02:58:25;;;;;;;2.62;2.30;;;;;;;2.11;75.17;98635.04;1748639;82;21170;-40
2021/01/08 03:00:53;;;;;;;2.75;2.12;;;;;;;2.09;75.53;98640.46;1748706;82;21179;-40
2021/01/08 03:03:23;;;;;;;2.10;1.90;;;;;;;2.06;75.92;98631.20;1744379;82;26621;-42
2021/01/08 03:05:51;;;;;;;2.90;2.25;;;;;;;2.08;76.01;98640.25;1692437;83;21621;-42
2021/01/08 03:08:20;;;;;;;2.20;2.00;;;;;;;2.11;76.01;98644.40;1718802;83;21024;-42
2021/01/08 03:10:48;;;;;;;2.60;2.22;;;;;;;2.08;76.19;98643.69;1692532;82;21122;-41
2021/01/08 03:13:16;;;;;;;2.60;2.40;;;;;;;2.10;76.26;98644.70;1730211;82;21106;-41
2021/01/08 03:15:44;;;;;;;3.27;2.40;;;;;;;2.16;76.30;98652.24;1719059;82;21735;-42
2021/01/08 03:18:13;;;;;;;2.70;2.30;;;;;;;2.16;76.50;98646.89;1729833;82;21742;-41
2021/01/08 03:20:41;;;;;;;3.08;2.42;;;;;;;2.12;76.75;98653.99;1747694;82;21115;-41
2021/01/08 03:23:09;;;;;;;3.25;2.33;;;;;;;2.14;76.89;98657.66;1719359;82;21620;-41
2021/01/08 03:25:38;;;;;;;3.00;2.70;;;;;;;2.16;76.70;98654.92;1719024;82;21142;-42
2021/01/08 03:28:06;;;;;;;3.25;2.72;;;;;;;2.14;76.54;98650.98;1718925;82;22131;-42
2021/01/08 03:30:36;;;;;;;2.90;2.60;;;;;;;2.12;76.64;98650.53;1718717;83;21154;-42
2021/01/08 03:33:05;;;;;;;;;;;;;;;2.13;76.59;98658.22;1727627;82;21176;-42
2021/01/08 03:35:33;;;;;;;3.62;3.12;;;;;;;2.23;76.50;98671.78;1719088;82;20279;-42
2021/01/08 03:38:01;;;;;;;4.35;3.20;;;;;;;2.12;77.03;98662.02;1718823;83;21174;-42
2021/01/08 03:40:29;;;;;;;3.50;3.20;;;;;;;2.13;77.22;98670.25;1718788;83;21273;-42
2021/01/08 03:42:57;;;;;;;5.05;4.03;;;;;;;2.16;77.16;98673.64;1720065;82;21581;-42
2021/01/08 03:45:26;;;;;;;5.92;4.30;;;;;;;2.21;77.29;98682.58;1718746;83;21150;-42
2021/01/08 03:47:54;;;;;;;5.45;4.33;;;;;;;2.19;77.53;98674.32;1718875;83;21163;-40
2021/01/08 03:50:23;;;;;;;6.55;4.75;;;;;;;2.15;77.75;98673.39;1718709;83;21138;-40
2021/01/08 03:52:51;;;;;;;7.53;5.25;;;;;;;2.23;77.71;98684.39;1719321;82;21249;-40
2021/01/08 03:55:19;;;;;;;8.15;5.42;;;;;;;2.22;77.82;98688.95;1718632;83;21134;-42
2021/01/08 03:57:48;;;;;;;7.47;5.95;;;;;;;2.20;77.93;98687.14;1718855;82;21047;-41
2021/01/08 04:00:17;;;;;;;8.80;6.17;;;;;;;2.22;77.87;98685.49;1718730;83;21142;-41
2021/01/08 04:02:45;;;;;;;8.15;6.12;;;;;;;2.22;77.75;98708.22;1719851;82;21213;-42
2021/01/08 04:05:14;;;;;;;8.28;6.30;;;;;;;2.18;77.93;98708.84;1718863;83;22110;-41
2021/01/08 04:07:42;;;;;;;8.13;6.00;;;;;;;2.15;77.94;98711.38;1718812;83;21162;-41
2021/01/08 04:10:10;;;;;;;8.55;6.17;;;;;;;2.19;77.89;98712.30;1719108;82;21406;-42
2021/01/08 04:12:39;;;;;;;8.83;6.62;;;;;;;2.18;77.85;98716.87;1719593;82;21048;-41
2021/01/08 04:15:09;;;;;;;8.63;6.42;;;;;;;2.18;78.00;98725.44;1715970;83;21140;-41
2021/01/08 04:17:37;;;;;;;9.98;7.03;;;;;;;2.19;77.81;98729.69;1710886;82;22202;-42
2021/01/08 04:20:07;;;;;;;14.05;8.70;;;;;;;2.25;77.58;98724.95;1721303;82;21138;-42
2021/01/08 04:22:35;;;;;;;12.58;8.10;;;;;;;1.84;77.57;98666.17;1705390;82;21143;-41
2021/01/08 04:25:05;;;;;;;11.68;7.83;;;;;;;2.22;77.60;98728.28;1705186;84;21206;-41
2021/01/08 04:27:33;;;;;;;12.30;8.25;;;;;;;2.27;77.51;98737.47;1711569;82;21422;-42
2021/01/08 04:30:02;;;;;;;12.80;9.13;;;;;;;2.27;77.44;98738.25;1705186;84;21630;-41
2021/01/08 04:32:31;;;;;;;13.70;8.93;;;;;;;2.24;77.56;98739.42;1714041;82;21574;-41
2021/01/08 04:35:00;;;;;;;13.90;8.88;;;;;;;2.16;77.48;98735.13;1729265;82;21191;-41
2021/01/08 04:37:28;;;;;;;13.83;10.30;;;;;;;2.21;77.45;98741.41;1705877;82;21167;-41
2021/01/08 04:39:57;;;;;;;14.28;9.85;;;;;;;2.16;77.19;98737.81;1705345;84;21641;-42
2021/01/08 04:42:25;;;;;;;15.43;9.83;;;;;;;2.15;77.27;98728.21;1705599;82;21339;-41
2021/01/08 04:44:53;;;;;;;15.20;10.65;;;;;;;2.20;77.29;98739.28;1705201;84;21614;-41
2021/01/08 04:47:22;;;;;;;16.55;10.93;;;;;;;2.25;77.01;98748.47;1705404;82;21114;-42
2021/01/08 04:49:52;;;;;;;17.30;11.57;;;;;;;2.22;77.02;98742.98;1705145;82;21151;-41
2021/01/08 04:52:21;;;;;;;17.37;10.88;;;;;;;2.21;77.12;98744.08;1697446;82;21187;-41
2021/01/08 04:54:49;;;;;;;17.75;13.05;;;;;;;2.28;77.10;98749.71;1721262;82;21364;-42
2021/01/08 04:57:17;;;;;;;20.60;13.30;;;;;;;2.30;76.86;98745.63;1713201;82;21191;-41
2021/01/08 04:59:45;;;;;;;18.40;11.85;;;;;;;2.27;76.88;98750.29;1705205;83;21146;-41
2021/01/08 05:02:14;;;;;;;18.45;13.13;;;;;;;2.29;76.79;98751.29;1693904;82;21776;-42
2021/01/08 05:04:43;;;;;;;22.67;13.95;;;;;;;2.30;76.63;98752.86;1727287;82;21602;-41
2021/01/08 05:07:11;;;;;;;21.62;12.78;;;;;;;2.28;76.58;98765.76;1734671;82;21333;-41
2021/01/08 05:09:39;;;;;;;20.35;13.70;;;;;;;2.22;76.66;98763.83;1734799;82;21554;-42
2021/01/08 05:12:08;;;;;;;20.85;13.50;;;;;;;2.17;76.76;98758.10;1719361;82;21159;-42
2021/01/08 05:14:36;;;;;;;21.48;13.75;;;;;;;2.25;76.71;98766.41;1714874;82;21142;-42
2021/01/08 05:17:06;;;;;;;22.87;15.17;;;;;;;2.21;76.62;98760.13;1724564;82;21206;-41
2021/01/08 05:19:34;;;;;;;21.55;14.40;;;;;;;2.17;76.76;98762.11;1719951;82;22082;-42
2021/01/08 05:22:02;;;;;;;27.60;17.00;;;;;;;2.21;76.71;98766.81;1704387;83;21178;-41
2021/01/08 05:24:31;;;;;;;25.85;16.45;;;;;;;2.25;76.62;98768.53;1720007;82;21044;-42
2021/01/08 05:27:04;;;;;;;25.43;15.83;;;;;;;2.20;76.62;98770.04;1691080;82;21150;-41
2021/01/08 05:29:34;;;;;;;27.48;15.38;;;;;;;2.15;76.76;98771.00;1738531;82;21020;-41
2021/01/08 05:32:04;;;;;;;28.20;18.42;;;;;;;2.15;76.91;98781.69;1734475;82;21402;-42
2021/01/08 05:34:32;;;;;;;30.82;18.27;;;;;;;2.10;77.01;98783.19;1726648;82;21170;-42
2021/01/08 05:37:01;;;;;;;28.30;16.93;;;;;;;2.07;77.33;98801.22;1712653;82;21020;-42
2021/01/08 05:39:29;;;;;;;28.25;17.85;;;;;;;2.01;77.48;98805.14;1748693;82;21146;-42
2021/01/08 05:41:57;;;;;;;29.12;17.42;;;;;;;2.04;77.56;98805.05;1738199;82;21143;-41
2021/01/08 05:44:25;;;;;;;29.25;17.75;;;;;;;2.03;77.58;98804.84;1738205;82;21380;-42
2021/01/08 05:46:53;;;;;;;30.43;18.35;;;;;;;1.98;77.75;98812.47;1691615;82;21151;-42
2021/01/08 05:49:21;;;;;;;29.45;17.92;;;;;;;2.01;77.79;98807.82;1692467;83;21626;-41
2021/01/08 05:51:49;;;;;;;29.40;18.37;;;;;;;2.05;77.53;98810.09;1715528;82;21123;-42
2021/01/08 05:54:18;;;;;;;32.17;18.98;;;;;;;2.02;77.41;98814.75;1732697;82;21126;-41
2021/01/08 05:56:47;;;;;;;28.30;18.12;;;;;;;1.98;77.50;98812.47;1739005;82;21366;-41
2021/01/08 05:59:16;;;;;;;28.62;18.73;;;;;;;1.98;77.55;98825.84;1721247;82;21135;-42
2021/01/08 06:01:44;;;;;;;32.88;19.87;;;;;;;2.02;77.30;98822.77;1718290;82;21183;-42
2021/01/08 06:04:13;;;;;;;29.65;17.92;;;;;;;1.99;77.39;98822.59;1746082;81;21154;-41
2021/01/08 06:06:44;;;;;;;29.52;18.67;;;;;;;1.96;77.34;98820.02;1720298;82;21175;-41
2021/01/08 06:09:15;;;;;;;27.22;18.02;;;;;;;2.01;77.36;98825.74;1722727;81;21387;-42
2021/01/08 06:11:45;;;;;;;27.98;17.87;;;;;;;2.00;77.14;98828.97;1723831;82;21047;-42
2021/01/08 06:14:16;;;;;;;27.20;16.90;;;;;;;1.94;77.22;98828.09;1692619;83;21753;-42
2021/01/08 06:16:48;;;;;;;29.98;16.70;;;;;;;1.89;77.31;98837.05;1703132;82;21202;-42
2021/01/08 06:19:16;;;;;;;32.67;18.50;;;;;;;1.94;77.31;98840.91;1726968;81;21146;-41
2021/01/08 06:21:46;;;;;;;31.23;18.70;;;;;;;1.91;77.16;98846.90;1730754;81;21286;-41
2021/01/08 06:24:25;;;;;;;27.30;17.95;;;;;;;1.92;77.27;98842.34;1729327;81;21182;-42
2021/01/08 06:26:54;;;;;;;27.52;16.40;;;;;;;1.94;77.22;98852.94;1739085;81;21015;-42
2021/01/08 06:29:26;;;;;;;29.18;17.20;;;;;;;2.03;76.99;98862.31;1737919;81;21189;-42
2021/01/08 06:31:57;;;;;;;27.40;16.10;;;;;;;2.00;76.87;98863.72;1751875;81;21269;-42
2021/01/08 06:34:29;;;;;;;25.08;15.98;;;;;;;1.97;77.00;98865.70;1727063;81;21387;-41
2021/01/08 06:37:07;;;;;;;26.12;15.08;;;;;;;1.99;76.83;98866.15;1748175;81;21182;-41
2021/01/08 06:39:45;;;;;;;27.87;17.57;;;;;;;2.06;76.66;98875.84;1738634;81;21158;-41
2021/01/08 06:42:29;;;;;;;26.73;15.40;;;;;;;1.98;76.55;98873.17;1731556;81;21198;-42
2021/01/08 06:45:00;;;;;;;23.55;14.80;;;;;;;1.97;76.80;98876.94;1736224;81;21396;-41
2021/01/08 06:47:29;;;;;;;;;;;;;;;2.00;76.70;98889.12;1728801;83;22370;-41
2021/01/08 06:49:58;;;;;;;25.62;16.45;;;;;;;2.02;76.82;98893.61;1731143;81;20258;-41
2021/01/08 06:52:27;;;;;;;22.40;14.40;;;;;;;1.90;77.09;98887.30;1732775;81;21189;-42
2021/01/08 06:54:55;;;;;;;25.60;16.27;;;;;;;1.94;76.92;98889.57;1742216;81;21554;-42
2021/01/08 06:57:23;;;;;;;24.07;15.03;;;;;;;2.01;76.84;98890.70;1751590;81;21558;-42
2021/01/08 06:59:55;;;;;;;23.30;16.42;;;;;;;2.04;76.62;98889.27;1699846;83;21374;-41
2021/01/08 07:02:25;;;;;;;22.65;14.38;;;;;;;2.04;76.61;98901.30;1690363;84;21173;-41
2021/01/08 07:04:54;;;;;;;23.65;15.08;;;;;;;2.05;76.50;98892.18;1690786;84;21181;-41
2021/01/08 07:07:26;;;;;;;18.77;13.20;;;;;;;2.09;76.33;98900.59;1689865;83;21149;-41
2021/01/08 07:09:57;;;;;;;25.62;15.30;;;;;;;2.11;76.11;98913.66;1691488;84;21612;-42
2021/01/08 07:12:26;;;;;;;20.05;13.93;;;;;;;2.08;76.42;98912.38;1712385;83;21436;-42
2021/01/08 07:14:54;;;;;;;21.25;14.63;;;;;;;2.05;76.51;98914.36;1698878;83;21638;-41
2021/01/08 07:17:30;;;;;;;21.35;14.38;;;;;;;2.07;76.27;98915.39;1698690;83;21157;-42
2021/01/08 07:20:09;;;;;;;23.25;15.32;;;;;;;2.12;75.94;98914.69;1816811;78;22774;-42
2021/01/08 07:22:39;;;;;;;21.40;14.63;;;;;;;2.05;76.03;98914.36;1769656;79;20972;-42
2021/01/08 07:25:13;;;;;;;;;;;;;;;2.02;76.17;98920.34;1768058;81;21734;-42
2021/01/08 07:27:46;;;;;;;23.92;15.05;;;;;;;2.06;76.20;98924.50;1766544;81;20652;-42
2021/01/08 07:30:15;;;;;;;23.00;14.63;;;;;;;1.99;76.34;98924.17;1757538;79;21184;-42
2021/01/08 07:32:50;;;;;;;22.58;14.23;;;;;;;1.98;76.21;98931.43;1768100;81;21179;-42
2021/01/08 07:35:27;;;;;;;20.97;14.13;;;;;;;2.01;76.17;98934.02;1804437;79;21051;-42
2021/01/08 07:38:02;;;;;;;21.37;14.25;;;;;;;2.03;76.15;98944.62;1766614;78;21365;-41
2021/01/08 07:40:58;;;;;;;20.68;13.78;;;;;;;2.04;75.96;98943.53;1759748;81;21613;-42
2021/01/08 07:43:36;;;;;;;21.33;13.40;;;;;;;2.01;75.83;98946.84;1748394;80;20992;-42
2021/01/08 07:46:05;;;;;;;17.70;12.93;;;;;;;2.02;75.72;98947.63;1770991;79;21139;-42
2021/01/08 07:48:38;;;;;;;22.02;13.62;;;;;;;2.06;75.41;98956.05;1772781;81;21123;-42
2021/01/08 07:51:10;;;;;;;17.73;12.07;;;;;;;2.05;75.37;98946.44;1761879;80;22105;-42
2021/01/08 07:53:49;;;;;;;20.27;13.62;;;;;;;2.01;75.03;98956.20;1755669;80;21182;-42
2021/01/08 07:56:27;;;;;;;17.45;11.63;;;;;;;2.00;75.08;98951.94;1763690;80;21103;-42
2021/01/08 07:58:59;;;;;;;21.12;13.95;;;;;;;2.05;74.84;98954.47;1757236;81;21147;-41
2021/01/08 08:01:34;;;;;;;21.82;13.90;;;;;;;2.01;75.01;98956.73;1765652;81;21150;-41
2021/01/08 08:04:08;;;;;;;20.68;13.72;;;;;;;2.01;75.22;98966.09;1756648;80;21582;-42
2021/01/08 08:06:39;;;;;;;22.30;15.18;;;;;;;2.05;75.09;98967.83;1768152;81;20996;-41
2021/01/08 08:11:56;;;;;;;24.15;15.63;;;;;;;2.12;74.94;98950.79;1877387;76;22685;-42
2021/01/08 08:14:25;;;;;;;21.90;15.58;;;;;;;2.06;74.37;98954.70;1784433;80;21058;-42
2021/01/08 08:16:53;;;;;;;23.80;16.52;;;;;;;2.06;74.12;98964.06;1817663;78;21272;-42
2021/01/08 08:19:22;;;;;;;22.50;16.12;;;;;;;2.12;73.93;98952.67;1817861;78;21935;-41
2021/01/08 08:21:51;;;;;;;24.92;15.80;;;;;;;2.09;73.71;98956.74;1744592;78;21058;-41
2021/01/08 08:24:19;;;;;;;22.07;14.93;;;;;;;2.02;73.57;98972.48;1811589;78;21000;-42
2021/01/08 08:26:49;;;;;;;;;;;;;;;1.98;73.91;98976.88;1783422;78;21063;-42
2021/01/08 08:29:18;;;;;;;24.02;16.17;;;;;;;2.02;73.76;98969.02;1773153;80;21180;-42
2021/01/08 08:34:32;;;;;;;21.55;13.88;;;;;;;2.00;73.63;98971.98;1816253;78;22811;-42
2021/01/08 08:37:10;;;;;;;20.12;14.13;;;;;;;1.99;73.46;98977.64;1779033;79;21016;-42
2021/01/08 08:39:38;;;;;;;20.12;14.30;;;;;;;2.04;73.29;98973.48;1782696;79;21558;-41
2021/01/08 08:42:07;;;;;;;21.02;15.18;;;;;;;2.02;72.91;98973.81;1775970;79;21177;-42
2021/01/08 08:44:43;;;;;;;20.97;13.78;;;;;;;1.98;73.08;98972.87;1758982;79;21048;-41
2021/01/08 08:47:11;;;;;;;15.95;11.12;;;;;;;2.00;73.15;98975.21;1782775;79;21534;-42
2021/01/08 08:49:44;;;;;;;19.52;13.53;;;;;;;2.03;73.04;98966.01;1788429;79;20976;-42
2021/01/08 08:52:11;;;;;;;21.48;14.60;;;;;;;2.08;72.98;98970.45;1780158;79;22227;-41
2021/01/08 08:54:42;;;;;;;16.65;12.30;;;;;;;2.06;72.92;98974.76;1778083;79;21874;-41
2021/01/08 08:57:11;;;;;;;18.55;12.63;;;;;;;2.05;72.87;98979.08;1795836;79;21605;-39
2021/01/08 08:59:46;;;;;;;19.05;12.23;;;;;;;2.07;73.06;98972.87;1793060;79;21309;-41
2021/01/08 09:02:28;;;;;;;18.60;13.05;;;;;;;2.12;72.66;98977.53;1794673;79;21122;-42
2021/01/08 09:04:59;;;;;;;18.92;13.03;;;;;;;2.12;72.87;98983.42;1782161;79;21371;-42
2021/01/08 09:07:37;;;;;;;17.27;11.55;;;;;;;2.09;72.81;98983.48;1800687;79;21071;-41
2021/01/08 09:10:16;;;;;;;17.30;12.13;;;;;;;2.12;72.34;98985.55;1808213;79;21020;-41
2021/01/08 09:13:12;;;;;;;18.48;11.68;;;;;;;2.21;72.45;98981.55;1789129;79;21627;-41
2021/01/08 09:15:55;;;;;;;16.30;11.97;;;;;;;2.26;72.22;98976.59;1791247;79;21146;-41
2021/01/08 09:18:44;;;;;;;15.20;11.68;;;;;;;2.25;72.07;98975.80;1797864;79;21581;-41
2021/01/08 09:21:22;;;;;;;16.40;11.15;;;;;;;2.24;71.44;98976.10;1787584;79;21160;-36
2021/01/08 09:23:57;;;;;;;15.08;10.55;;;;;;;2.27;71.05;98974.16;1802838;79;21569;-41
2021/01/08 09:26:25;;;;;;;16.62;11.75;;;;;;;2.27;70.46;98975.50;1783194;79;21134;-41
2021/01/08 09:28:55;;;;;;;18.35;11.85;;;;;;;2.22;71.24;98985.80;1776726;79;21159;-42
2021/01/08 09:31:41;;;;;;;12.10;8.80;;;;;;;2.23;71.42;98991.36;1797590;79;22251;-41
2021/01/08 09:34:12;;;;;;;18.30;11.43;;;;;;;2.31;71.30;98989.81;1787851;79;21155;-40
2021/01/08 09:36:41;;;;;;;16.48;11.90;;;;;;;2.40;70.40;99003.98;1809011;79;21102;-42
2021/01/08 09:39:12;;;;;;;18.55;9.05;;;;;;;2.40;70.67;98996.73;1788978;79;21176;-40
2021/01/08 09:41:43;;;;;;;15.63;11.57;;;;;;;2.43;70.85;98986.73;1731323;82;21197;-41
2021/01/08 09:44:15;;;;;;;13.95;10.50;;;;;;;2.44;70.42;98984.30;1731763;81;22615;-41
2021/01/08 09:46:58;;;;;;;15.65;10.88;;;;;;;2.45;69.98;98979.20;1743182;80;21672;-42
2021/01/08 09:49:39;;;;;;;14.35;10.88;;;;;;;2.53;69.97;98985.09;1728484;82;21653;-40
2021/01/08 09:52:07;;;;;;;;;;;;;;;2.54;69.88;98977.85;1773370;80;21149;-41
2021/01/08 09:54:47;;;;;;;13.03;7.57;;;;;;;2.50;68.96;98980.37;1766824;80;20257;-40
2021/01/08 09:57:34;;;;;;;12.75;9.08;;;;;;;2.41;69.50;98990.30;1743296;80;21440;-41
2021/01/08 10:00:08;;;;;;;12.43;9.53;;;;;;;2.44;69.25;98980.29;1731256;82;21158;-42
2021/01/08 10:02:46;;;;;;;11.90;9.10;;;;;;;2.56;69.06;98985.02;1693242;82;21162;-42
2021/01/08 10:05:25;;;;;;;13.00;9.45;;;;;;;2.57;68.43;98987.36;1732619;82;21170;-42
2021/01/08 10:07:53;;;;;;;12.65;8.68;;;;;;;2.60;68.32;98987.30;1728595;81;21415;-42
2021/01/08 10:10:37;;;;;;;14.98;9.10;;;;;;;2.57;68.07;98987.91;1753725;80;21206;-42
2021/01/08 10:13:07;;;;;;;13.53;8.28;;;;;;;2.52;68.01;98990.75;1724914;82;22147;-42
2021/01/08 10:15:49;;;;;;;14.28;10.40;;;;;;;2.51;68.15;98983.30;1741879;82;21169;-42
2021/01/08 10:18:37;;;;;;;13.25;9.50;;;;;;;2.48;68.14;98981.78;1807736;79;21154;-42
2021/01/08 10:21:08;;;;;;;13.18;8.83;;;;;;;2.50;68.17;98984.94;1795234;77;21114;-42
2021/01/08 10:23:42;;;;;;;12.50;8.85;;;;;;;2.49;68.11;98976.67;1803809;79;22266;-42
2021/01/08 10:26:17;;;;;;;12.73;9.18;;;;;;;2.49;68.06;98985.48;1803318;79;21179;-43
2021/01/08 10:28:51;;;;;;;13.43;9.08;;;;;;;2.49;67.61;98982.02;1811306;79;21161;-42
2021/01/08 10:31:22;;;;;;;12.47;8.93;;;;;;;2.48;67.73;98985.79;1810875;79;21755;-42
2021/01/08 10:33:53;;;;;;;12.20;8.15;;;;;;;2.45;66.51;98986.43;1794326;78;21131;-42
2021/01/08 10:36:22;;;;;;;11.33;8.03;;;;;;;2.44;66.83;98985.64;1785509;79;21351;-42
2021/01/08 10:38:50;;;;;;;10.70;6.85;;;;;;;2.44;66.56;98983.52;1790442;79;21035;-41
2021/01/08 10:41:18;;;;;;;12.33;8.33;;;;;;;2.44;66.42;98986.19;1791766;79;21024;-42
2021/01/08 10:43:47;;;;;;;10.85;8.18;;;;;;;2.47;66.08;98971.63;1770972;81;21480;-42
2021/01/08 10:46:21;;;;;;;12.78;8.43;;;;;;;2.48;66.04;98976.43;1775361;79;21114;-42
2021/01/08 10:48:51;;;;;;;12.05;8.50;;;;;;;2.48;65.60;98975.88;1789102;79;21276;-41
2021/01/08 10:51:21;;;;;;;12.50;8.25;;;;;;;2.47;66.17;98982.91;1801415;79;21146;-42
2021/01/08 10:53:49;;;;;;;11.05;8.33;;;;;;;2.48;66.25;98981.78;1735884;79;21166;-42
2021/01/08 10:56:31;;;;;;;9.45;7.65;;;;;;;2.54;66.42;98992.56;1785835;79;21095;-42
2021/01/08 10:59:02;;;;;;;10.58;7.00;;;;;;;2.52;64.44;98996.88;1781142;79;21606;-42
2021/01/08 11:01:39;;;;;;;10.88;8.55;;;;;;;2.49;64.48;98998.08;1773899;79;21202;-42
2021/01/08 11:04:08;;;;;;;9.90;6.83;;;;;;;2.43;64.81;99000.66;1784749;79;21155;-42
2021/01/08 11:06:38;;;;;;;11.90;8.53;;;;;;;2.43;65.15;98993.42;1771415;81;21016;-42
2021/01/08 11:09:10;;;;;;;9.55;7.17;;;;;;;2.47;65.34;98991.69;1783529;79;20976;-42
2021/01/08 11:11:38;;;;;;;11.48;8.10;;;;;;;2.52;65.61;98995.55;1788139;79;21554;-42
2021/01/08 11:14:06;;;;;;;13.03;8.70;;;;;;;2.55;65.53;98995.48;1781632;79;22070;-42
2021/01/08 11:16:34;;;;;;;11.50;8.30;;;;;;;2.55;65.07;98996.83;1757336;79;21158;-42
2021/01/08 11:19:03;;;;;;;10.30;7.30;;;;;;;2.53;64.87;99009.72;1785492;79;21585;-42
2021/01/08 11:21:33;;;;;;;10.23;7.20;;;;;;;2.52;63.81;99002.23;1788326;79;21150;-42
2021/01/08 11:24:01;;;;;;;10.35;7.50;;;;;;;2.47;63.50;99004.30;1794107;79;21170;-41
2021/01/08 11:26:29;;;;;;;9.10;7.05;;;;;;;2.48;63.77;99003.97;1786187;79;22123;-42
2021/01/08 11:28:59;;;;;;;9.05;6.42;;;;;;;2.50;63.28;99006.34;1797728;79;21032;-42
2021/01/08 11:31:34;;;;;;;9.15;6.33;;;;;;;2.44;63.09;99004.91;1772379;79;20996;-41
2021/01/08 11:34:04;;;;;;;9.23;7.45;;;;;;;2.42;63.30;99007.89;1782816;79;21784;-42
2021/01/08 11:36:32;;;;;;;9.48;6.60;;;;;;;2.37;63.12;99008.63;1782247;79;21163;-42
2021/01/08 11:39:00;;;;;;;9.40;6.50;;;;;;;2.37;63.54;99008.63;1785795;79;21323;-41
2021/01/08 11:41:29;;;;;;;9.90;7.00;;;;;;;2.37;63.43;99007.29;1780701;79;20961;-41
2021/01/08 11:43:58;;;;;;;7.87;5.83;;;;;;;2.37;63.63;99012.64;1786163;79;21602;-42
2021/01/08 11:46:26;;;;;;;10.53;7.47;;;;;;;2.32;63.94;99016.80;1778662;79;20997;-42
2021/01/08 11:48:55;;;;;;;12.53;7.67;;;;;;;2.33;64.51;99025.04;1785322;79;21158;-42
2021/01/08 11:51:24;;;;;;;11.12;7.92;;;;;;;2.32;64.74;99021.61;1765181;79;21262;-42
2021/01/08 11:53:52;;;;;;;11.95;7.67;;;;;;;2.33;64.48;99026.37;1795022;79;21190;-41
2021/01/08 11:56:32;;;;;;;9.45;6.90;;;;;;;2.22;64.11;99010.41;1785316;79;21127;-42
2021/01/08 11:59:00;;;;;;;9.25;6.70;;;;;;;2.30;63.77;99021.66;1724444;82;21381;-42